createdAt,value
2022-08-08T00:00:52.902Z,17.90
2022-08-08T00:03:33.067Z,17.90
2022-08-08T00:06:07.762Z,17.70
2022-08-08T00:08:51.909Z,17.80
2022-08-08T00:11:46.742Z,17.80
2022-08-08T00:15:00.236Z,17.70
2022-08-08T00:18:01.609Z,17.70
2022-08-08T00:20:49.894Z,17.60
2022-08-08T00:23:43.189Z,17.60
2022-08-08T00:26:29.475Z,17.60
2022-08-08T00:29:09.008Z,17.50
2022-08-08T00:32:21.039Z,17.50
2022-08-08T00:35:18.517Z,17.40
2022-08-08T00:38:04.525Z,17.30
2022-08-08T00:41:09.359Z,17.30
2022-08-08T00:43:29.600Z,17.40
2022-08-08T00:46:57.370Z,17.20
2022-08-08T00:49:58.503Z,17.20
2022-08-08T00:52:32.493Z,17.20
2022-08-08T00:55:22.078Z,17.20
2022-08-08T00:58:30.555Z,17.20
2022-08-08T01:01:01.989Z,17.10
2022-08-08T01:04:02.093Z,17.20
2022-08-08T01:06:32.613Z,17.00
2022-08-08T01:09:36.117Z,17.10
2022-08-08T01:12:41.945Z,17.10
2022-08-08T01:15:43.417Z,17.00
2022-08-08T01:18:25.003Z,17.00
2022-08-08T01:21:14.101Z,17.00
2022-08-08T01:24:16.454Z,16.90
2022-08-08T01:26:59.787Z,17.00
2022-08-08T01:29:59.829Z,17.00
2022-08-08T01:32:32.212Z,17.00
2022-08-08T01:35:29.696Z,17.00
2022-08-08T01:38:06.158Z,17.00
2022-08-08T01:41:11.553Z,17.00
2022-08-08T01:43:53.288Z,16.90
2022-08-08T01:46:27.175Z,16.80
2022-08-08T01:49:23.486Z,16.80
2022-08-08T01:53:55.016Z,16.80
2022-08-08T01:56:27.621Z,16.70
2022-08-08T01:58:38.795Z,16.80
2022-08-08T02:02:00.243Z,16.80
2022-08-08T02:04:45.048Z,16.60
2022-08-08T02:07:56.826Z,16.60
2022-08-08T02:10:45.897Z,16.60
2022-08-08T02:13:53.827Z,16.60
2022-08-08T02:16:35.106Z,16.50
2022-08-08T02:19:41.686Z,16.50
2022-08-08T02:22:52.959Z,16.50
2022-08-08T02:26:09.981Z,16.50
2022-08-08T02:28:53.740Z,16.50
2022-08-08T02:31:58.649Z,16.40
2022-08-08T02:35:12.698Z,16.50
2022-08-08T02:38:25.376Z,16.40
2022-08-08T02:41:58.457Z,16.40
2022-08-08T02:44:56.535Z,16.30
2022-08-08T02:48:04.989Z,16.30
2022-08-08T02:50:47.311Z,16.20
2022-08-08T02:54:02.450Z,16.20
2022-08-08T02:57:00.587Z,16.20
2022-08-08T03:00:31.792Z,16.30
2022-08-08T03:05:00.656Z,16.30
2022-08-08T03:06:42.744Z,16.30
2022-08-08T03:09:10.197Z,16.30
2022-08-08T03:12:13.919Z,16.30
2022-08-08T03:15:57.990Z,16.20
2022-08-08T03:18:04.721Z,16.20
2022-08-08T03:20:52.060Z,16.10
2022-08-08T03:23:39.847Z,16.10
2022-08-08T03:26:30.621Z,16.00
2022-08-08T03:29:26.902Z,15.90
2022-08-08T03:32:37.497Z,16.10
2022-08-08T03:35:10.778Z,16.00
2022-08-08T03:38:54.880Z,16.00
2022-08-08T03:40:33.594Z,16.10
2022-08-08T03:43:16.750Z,16.10
2022-08-08T03:46:06.680Z,16.10
2022-08-08T03:49:56.374Z,16.20
2022-08-08T03:51:40.471Z,16.10
2022-08-08T03:54:41.637Z,16.00
2022-08-08T03:58:30.675Z,16.00
2022-08-08T04:00:11.297Z,15.90
2022-08-08T04:02:59.607Z,16.00
2022-08-08T04:05:30.295Z,16.10
2022-08-08T04:08:06.926Z,15.90
2022-08-08T04:10:36.079Z,16.20
2022-08-08T04:13:18.176Z,16.00
2022-08-08T04:16:03.490Z,16.00
2022-08-08T04:18:44.762Z,16.00
2022-08-08T04:21:22.890Z,16.00
2022-08-08T04:24:11.683Z,16.00
2022-08-08T04:26:56.897Z,16.00
2022-08-08T04:29:26.538Z,16.20
2022-08-08T04:31:59.743Z,16.00
2022-08-08T04:34:32.398Z,16.00
2022-08-08T04:37:12.168Z,16.00
2022-08-08T04:40:03.814Z,16.10
2022-08-08T04:42:30.452Z,16.10
2022-08-08T04:45:01.120Z,16.10
2022-08-08T04:47:28.689Z,16.10
2022-08-08T04:50:01.197Z,16.10
2022-08-08T04:52:35.337Z,16.20
2022-08-08T04:55:07.456Z,16.40
2022-08-08T04:57:34.913Z,16.30
2022-08-08T05:00:05.049Z,16.30
2022-08-08T05:02:33.337Z,16.30
2022-08-08T05:05:01.483Z,16.40
2022-08-08T05:07:33.078Z,16.40
2022-08-08T05:10:12.663Z,16.50
2022-08-08T05:12:53.377Z,16.50
2022-08-08T05:16:36.378Z,16.50
2022-08-08T05:18:18.506Z,16.50
2022-08-08T05:20:49.942Z,16.50
2022-08-08T05:23:19.235Z,16.60
2022-08-08T05:25:46.971Z,16.70
2022-08-08T05:28:14.795Z,16.70
2022-08-08T05:30:46.979Z,16.80
2022-08-08T05:33:16.873Z,16.90
2022-08-08T05:35:46.516Z,17.10
2022-08-08T05:38:32.262Z,17.00
2022-08-08T05:41:09.407Z,17.00
2022-08-08T05:44:03.998Z,17.20
2022-08-08T05:46:27.693Z,17.20
2022-08-08T05:48:55.406Z,17.30
2022-08-08T05:51:27.657Z,17.30
2022-08-08T05:54:28.103Z,17.30
2022-08-08T05:57:07.258Z,17.50
2022-08-08T05:59:57.716Z,17.60
2022-08-08T06:03:03.911Z,17.70
2022-08-08T06:05:36.411Z,17.80
2022-08-08T06:08:33.187Z,17.90
2022-08-08T06:11:06.007Z,17.90
2022-08-08T06:13:36.215Z,18.20
2022-08-08T06:16:18.944Z,18.30
2022-08-08T06:19:17.074Z,18.40
2022-08-08T06:21:57.025Z,18.50
2022-08-08T06:24:36.061Z,18.60
2022-08-08T06:27:09.486Z,18.70
2022-08-08T06:30:03.982Z,18.70
2022-08-08T06:32:52.712Z,18.70
2022-08-08T06:36:06.640Z,18.80
2022-08-08T06:38:14.448Z,18.90
2022-08-08T06:40:48.629Z,18.90
2022-08-08T06:43:28.481Z,19.10
2022-08-08T06:46:00.007Z,19.20
2022-08-08T06:48:28.813Z,19.30
2022-08-08T06:50:59.174Z,19.40
2022-08-08T06:53:39.580Z,19.40
2022-08-08T06:56:09.040Z,19.50
2022-08-08T06:58:36.977Z,19.60
2022-08-08T07:02:16.343Z,19.80
2022-08-08T07:04:39.126Z,19.90
2022-08-08T07:07:10.425Z,20.20
2022-08-08T07:10:08.372Z,20.50
2022-08-08T07:12:47.844Z,20.50
2022-08-08T07:16:03.546Z,20.70
2022-08-08T07:18:35.954Z,20.90
2022-08-08T07:21:18.549Z,21.10
2022-08-08T07:24:02.814Z,21.20
2022-08-08T07:26:39.940Z,21.20
2022-08-08T07:29:11.616Z,21.20
2022-08-08T07:31:49.096Z,21.10
2022-08-08T07:34:20.316Z,21.30
2022-08-08T07:37:12.047Z,21.40
2022-08-08T07:39:56.253Z,21.40
2022-08-08T07:42:33.226Z,21.40
2022-08-08T07:45:04.400Z,21.60
2022-08-08T07:47:38.792Z,21.80
2022-08-08T07:50:08.933Z,22.10
2022-08-08T07:52:43.624Z,22.10
2022-08-08T07:55:31.936Z,22.10
2022-08-08T07:58:20.677Z,22.10
2022-08-08T08:00:51.011Z,22.20
2022-08-08T08:03:43.724Z,22.20
2022-08-08T08:06:16.424Z,22.40
2022-08-08T08:08:52.548Z,22.50
2022-08-08T08:11:38.054Z,22.60
2022-08-08T08:17:01.182Z,23.00
2022-08-08T08:19:45.568Z,23.00
2022-08-08T08:22:16.220Z,22.90
2022-08-08T08:24:59.024Z,23.00
2022-08-08T08:27:34.878Z,23.00
2022-08-08T08:30:01.930Z,23.10
2022-08-08T08:32:35.894Z,23.30
2022-08-08T08:35:09.371Z,23.50
2022-08-08T08:38:13.189Z,23.70
2022-08-08T08:40:27.769Z,23.90
2022-08-08T08:42:56.615Z,23.80
2022-08-08T08:45:26.348Z,23.60
2022-08-08T08:48:01.177Z,23.50
2022-08-08T08:50:35.423Z,23.60
2022-08-08T08:53:55.138Z,23.50
2022-08-08T08:56:06.933Z,23.40
2022-08-08T08:58:46.556Z,23.40
2022-08-08T09:01:26.040Z,23.50
2022-08-08T09:03:59.504Z,23.80
2022-08-08T09:06:36.262Z,24.10
2022-08-08T09:09:39.128Z,24.30
2022-08-08T09:12:19.959Z,24.20
2022-08-08T09:14:50.132Z,24.10
2022-08-08T09:17:31.545Z,24.00
2022-08-08T09:21:57.973Z,23.90
2022-08-08T09:22:59.145Z,24.00
2022-08-08T09:25:36.140Z,24.00
2022-08-08T09:28:23.904Z,24.10
2022-08-08T09:31:12.353Z,24.20
2022-08-08T09:34:15.521Z,24.30
2022-08-08T09:36:36.105Z,24.50
2022-08-08T09:39:15.453Z,24.70
2022-08-08T09:42:21.281Z,24.80
2022-08-08T09:44:58.205Z,24.90
2022-08-08T09:48:04.264Z,24.60
2022-08-08T09:50:32.511Z,24.70
2022-08-08T09:53:23.589Z,24.70
2022-08-08T09:56:03.625Z,24.80
2022-08-08T09:58:41.656Z,25.00
2022-08-08T10:01:15.163Z,25.20
2022-08-08T10:04:02.521Z,25.10
2022-08-08T10:06:32.872Z,25.30
2022-08-08T10:09:03.133Z,25.50
2022-08-08T10:12:27.158Z,25.50
2022-08-08T10:14:27.979Z,25.70
2022-08-08T10:17:57.082Z,25.80
2022-08-08T10:20:01.121Z,25.60
2022-08-08T10:22:29.924Z,25.80
2022-08-08T10:25:04.950Z,25.90
2022-08-08T10:27:42.095Z,26.00
2022-08-08T10:30:16.376Z,25.80
2022-08-08T10:33:00.285Z,25.80
2022-08-08T10:36:08.859Z,25.80
2022-08-08T10:38:19.722Z,26.20
2022-08-08T10:40:51.366Z,26.70
2022-08-08T10:43:18.705Z,26.80
2022-08-08T10:45:56.738Z,27.00
2022-08-08T10:48:56.225Z,27.10
2022-08-08T10:51:26.099Z,27.20
2022-08-08T10:53:57.791Z,27.50
2022-08-08T10:56:34.612Z,27.20
2022-08-08T10:59:08.198Z,26.50
2022-08-08T11:01:38.240Z,26.00
2022-08-08T11:04:10.513Z,25.80
2022-08-08T11:06:41.985Z,25.60
2022-08-08T11:09:20.033Z,25.60
2022-08-08T11:12:05.798Z,25.50
2022-08-08T11:14:50.382Z,25.70
2022-08-08T11:17:58.491Z,26.40
2022-08-08T11:20:13.262Z,26.80
2022-08-08T11:22:41.415Z,27.20
2022-08-08T11:25:13.694Z,27.20
2022-08-08T11:27:44.544Z,26.70
2022-08-08T11:30:24.145Z,26.30
2022-08-08T11:33:04.963Z,26.10
2022-08-08T11:35:38.585Z,26.00
2022-08-08T11:38:35.919Z,26.00
2022-08-08T11:41:00.940Z,26.00
2022-08-08T11:43:38.979Z,26.50
2022-08-08T11:46:13.915Z,27.00
2022-08-08T11:48:47.243Z,27.10
2022-08-08T11:51:38.996Z,26.90
2022-08-08T11:54:27.235Z,26.80
2022-08-08T11:56:55.957Z,26.60
2022-08-08T12:00:01.488Z,26.20
2022-08-08T12:02:32.778Z,25.70
2022-08-08T12:05:06.668Z,25.50
2022-08-08T12:07:53.884Z,25.30
2022-08-08T12:10:25.814Z,25.30
2022-08-08T12:13:10.600Z,25.40
2022-08-08T12:15:43.025Z,25.60
2022-08-08T12:18:27.351Z,25.60
2022-08-08T12:20:59.409Z,25.70
2022-08-08T12:23:43.752Z,26.00
2022-08-08T12:26:28.617Z,26.40
2022-08-08T12:29:36.279Z,26.50
2022-08-08T12:32:13.600Z,26.50
2022-08-08T12:35:01.440Z,26.60
2022-08-08T12:37:41.504Z,26.70
2022-08-08T12:40:22.603Z,26.80
2022-08-08T12:42:52.077Z,26.70
2022-08-08T12:45:54.076Z,26.60
2022-08-08T12:48:37.549Z,26.70
2022-08-08T12:51:07.707Z,27.10
2022-08-08T12:53:54.684Z,27.40
2022-08-08T12:56:34.046Z,27.50
2022-08-08T12:59:01.718Z,27.80
2022-08-08T13:01:38.476Z,27.60
2022-08-08T13:04:19.123Z,27.50
2022-08-08T13:07:06.102Z,27.40
2022-08-08T13:09:57.582Z,27.40
2022-08-08T13:12:30.052Z,27.40
2022-08-08T13:15:00.460Z,27.40
2022-08-08T13:17:53.969Z,27.50
2022-08-08T13:20:20.278Z,27.60
2022-08-08T13:22:47.700Z,27.10
2022-08-08T13:25:21.257Z,27.10
2022-08-08T13:27:54.485Z,27.30
2022-08-08T13:30:26.530Z,27.30
2022-08-08T13:32:57.047Z,27.50
2022-08-08T13:35:38.405Z,27.40
2022-08-08T13:38:08.529Z,27.90
2022-08-08T13:40:44.678Z,28.90
2022-08-08T13:43:13.885Z,29.90
2022-08-08T13:45:47.510Z,30.50
2022-08-08T13:48:19.813Z,30.90
2022-08-08T13:50:57.498Z,30.90
2022-08-08T13:53:31.429Z,30.70
2022-08-08T13:56:05.168Z,30.50
2022-08-08T13:58:33.211Z,31.10
2022-08-08T14:01:23.168Z,31.80
2022-08-08T14:03:55.202Z,32.20
2022-08-08T14:06:32.897Z,31.50
2022-08-08T14:09:25.404Z,30.30
2022-08-08T14:11:49.236Z,30.60
2022-08-08T14:14:21.083Z,31.80
2022-08-08T14:16:52.837Z,32.30
2022-08-08T14:19:57.403Z,32.40
2022-08-08T14:22:22.717Z,31.30
2022-08-08T14:24:58.890Z,30.20
2022-08-08T14:27:34.153Z,29.70
2022-08-08T14:30:02.654Z,30.30
2022-08-08T14:32:31.024Z,31.30
2022-08-08T14:35:04.462Z,32.00
2022-08-08T14:37:43.314Z,32.70
2022-08-08T14:40:27.051Z,32.80
2022-08-08T14:43:01.658Z,33.60
2022-08-08T14:46:03.299Z,34.40
2022-08-08T14:48:52.246Z,34.60
2022-08-08T14:51:25.725Z,33.60
2022-08-08T14:54:12.548Z,32.10
2022-08-08T14:56:40.173Z,30.90
2022-08-08T14:59:22.463Z,29.90
2022-08-08T15:01:59.522Z,28.90
2022-08-08T15:04:26.526Z,28.80
2022-08-08T15:06:53.454Z,30.30
2022-08-08T15:09:21.770Z,31.90
2022-08-08T15:11:53.206Z,33.20
2022-08-08T15:14:26.384Z,34.00
2022-08-08T15:16:54.942Z,34.40
2022-08-08T15:19:23.964Z,34.00
2022-08-08T15:21:55.302Z,33.40
2022-08-08T15:24:24.819Z,33.80
2022-08-08T15:26:58.744Z,34.20
2022-08-08T15:29:39.993Z,34.70
2022-08-08T15:32:20.608Z,34.90
2022-08-08T15:34:49.963Z,35.10
2022-08-08T15:37:20.435Z,35.40
2022-08-08T15:39:48.033Z,35.50
2022-08-08T15:42:24.070Z,35.10
2022-08-08T15:45:00.530Z,34.50
2022-08-08T15:47:28.661Z,34.40
2022-08-08T15:49:58.439Z,33.80
2022-08-08T15:52:25.730Z,34.20
2022-08-08T15:54:53.501Z,34.60
2022-08-08T15:57:23.224Z,34.60
2022-08-08T16:00:05.468Z,35.00
2022-08-08T16:02:50.771Z,35.20
2022-08-08T16:05:21.165Z,35.20
2022-08-08T16:07:52.392Z,35.20
2022-08-08T16:13:10.890Z,33.70
2022-08-08T16:13:29.390Z,32.00
2022-08-08T16:16:09.380Z,30.40
2022-08-08T16:18:41.600Z,29.30
2022-08-08T16:21:25.840Z,28.40
2022-08-08T16:23:55.670Z,27.90
2022-08-08T16:26:34.460Z,27.50
2022-08-08T16:29:07.933Z,27.20
2022-08-08T16:31:37.354Z,26.90
2022-08-08T16:34:04.806Z,26.60
2022-08-08T16:36:33.629Z,26.50
2022-08-08T16:39:16.607Z,26.30
2022-08-08T16:41:50.205Z,26.20
2022-08-08T16:44:18.262Z,26.20
2022-08-08T16:46:56.317Z,26.00
2022-08-08T16:49:23.498Z,26.00
2022-08-08T16:55:04.270Z,26.00
2022-08-08T16:55:13.926Z,26.00
2022-08-08T16:58:15.010Z,25.90
2022-08-08T17:00:27.059Z,25.90
2022-08-08T17:02:54.573Z,25.90
2022-08-08T17:05:21.723Z,26.10
2022-08-08T17:07:58.448Z,25.90
2022-08-08T17:10:25.365Z,25.90
2022-08-08T17:12:52.893Z,25.80
2022-08-08T17:15:22.855Z,25.60
2022-08-08T17:18:03.342Z,25.50
2022-08-08T17:20:32.223Z,25.30
2022-08-08T17:23:16.693Z,25.20
2022-08-08T17:25:52.488Z,25.10
2022-08-08T17:28:34.367Z,25.00
2022-08-08T17:31:44.203Z,25.00
2022-08-08T17:34:37.113Z,25.00
2022-08-08T17:37:00.917Z,24.90
2022-08-08T17:40:03.245Z,25.10
2022-08-08T17:42:19.418Z,24.90
2022-08-08T17:44:49.005Z,24.90
2022-08-08T17:47:24.198Z,24.80
2022-08-08T17:50:01.187Z,24.80
2022-08-08T17:52:34.254Z,24.70
2022-08-08T17:56:03.291Z,24.70
2022-08-08T17:57:52.191Z,24.70
2022-08-08T18:00:25.838Z,24.70
2022-08-08T18:03:09.203Z,24.70
2022-08-08T18:05:48.100Z,24.80
2022-08-08T18:08:24.802Z,24.70
2022-08-08T18:11:09.288Z,24.60
2022-08-08T18:13:42.635Z,24.40
2022-08-08T18:16:11.024Z,24.30
2022-08-08T18:18:45.504Z,24.10
2022-08-08T18:21:34.429Z,24.00
2022-08-08T18:24:17.207Z,23.80
2022-08-08T18:26:53.646Z,23.80
2022-08-08T18:29:36.194Z,23.60
2022-08-08T18:32:10.227Z,23.60
2022-08-08T18:34:42.609Z,23.60
2022-08-08T18:37:10.214Z,23.50
2022-08-08T18:39:57.291Z,23.40
2022-08-08T18:42:24.320Z,23.40
2022-08-08T18:44:55.819Z,23.40
2022-08-08T18:47:27.925Z,23.30
2022-08-08T18:50:00.433Z,23.30
2022-08-08T18:52:36.700Z,23.20
2022-08-08T18:55:10.324Z,23.20
2022-08-08T18:57:45.090Z,23.10
2022-08-08T19:00:20.674Z,23.00
2022-08-08T19:02:55.488Z,23.00
2022-08-08T19:05:30.607Z,22.90
2022-08-08T19:08:25.665Z,22.90
2022-08-08T19:11:01.841Z,22.80
2022-08-08T19:13:52.516Z,22.70
2022-08-08T19:16:19.489Z,22.70
2022-08-08T19:19:00.363Z,22.60
2022-08-08T19:21:33.070Z,22.50
2022-08-08T19:24:05.304Z,22.40
2022-08-08T19:26:34.781Z,22.40
2022-08-08T19:29:03.941Z,22.40
2022-08-08T19:31:35.453Z,22.30
2022-08-08T19:34:35.883Z,22.30
2022-08-08T19:36:58.666Z,22.10
2022-08-08T19:39:34.739Z,22.20
2022-08-08T19:42:04.208Z,22.20
2022-08-08T19:44:45.903Z,22.20
2022-08-08T19:47:14.363Z,22.10
2022-08-08T19:50:08.106Z,22.00
2022-08-08T19:52:37.035Z,21.90
2022-08-08T19:55:11.233Z,21.90
2022-08-08T19:57:42.596Z,21.90
2022-08-08T20:00:30.197Z,21.90
2022-08-08T20:03:01.023Z,21.80
2022-08-08T20:06:14.117Z,21.80
2022-08-08T20:11:10.178Z,21.70
2022-08-08T20:14:32.426Z,21.60
2022-08-08T20:16:29.311Z,21.60
2022-08-08T20:18:56.891Z,21.50
2022-08-08T20:21:26.170Z,21.50
2022-08-08T20:23:57.651Z,21.40
2022-08-08T20:26:29.757Z,21.30
2022-08-08T20:28:57.568Z,21.40
2022-08-08T20:31:25.768Z,21.30
2022-08-08T20:34:30.378Z,21.40
2022-08-08T20:36:59.971Z,21.30
2022-08-08T20:39:39.295Z,21.30
2022-08-08T20:42:15.535Z,21.20
2022-08-08T20:44:43.355Z,21.20
2022-08-08T20:47:23.042Z,21.10
2022-08-08T20:49:59.197Z,21.10
2022-08-08T20:52:28.044Z,21.00
2022-08-08T20:54:56.561Z,21.00
2022-08-08T20:57:28.759Z,20.90
2022-08-08T20:59:56.795Z,21.10
2022-08-08T21:02:26.308Z,20.90
2022-08-08T21:05:00.742Z,20.80
2022-08-08T21:07:47.297Z,20.80
2022-08-08T21:10:20.945Z,20.80
2022-08-08T21:12:54.124Z,20.70
2022-08-08T21:16:05.265Z,20.70
2022-08-08T21:18:12.158Z,20.50
2022-08-08T21:20:50.650Z,20.30
2022-08-08T21:23:18.330Z,20.50
2022-08-08T21:25:48.998Z,20.50
2022-08-08T21:28:33.440Z,20.40
2022-08-08T21:31:21.952Z,20.30
2022-08-08T21:33:53.423Z,20.30
2022-08-08T21:36:28.539Z,20.30
2022-08-08T21:38:57.249Z,20.30
2022-08-08T21:41:38.712Z,20.30
2022-08-08T21:44:12.975Z,20.30
2022-08-08T21:48:02.062Z,20.10
2022-08-08T21:49:29.359Z,20.00
2022-08-08T21:54:17.260Z,20.20
2022-08-08T21:55:02.510Z,20.30
2022-08-08T21:57:43.080Z,20.10
2022-08-08T22:00:26.267Z,20.00
2022-08-08T22:02:56.089Z,20.00
2022-08-08T22:05:49.483Z,20.10
2022-08-08T22:08:27.700Z,19.90
2022-08-08T22:11:29.095Z,19.80
2022-08-08T22:13:58.572Z,19.80
2022-08-08T22:16:29.554Z,19.80
2022-08-08T22:19:15.565Z,19.80
2022-08-08T22:21:44.371Z,19.70
2022-08-08T22:24:13.686Z,19.70
2022-08-08T22:27:01.548Z,19.70
2022-08-08T22:30:01.887Z,19.70
2022-08-08T22:32:21.915Z,19.70
2022-08-08T22:34:51.063Z,19.60
2022-08-08T22:37:53.922Z,19.60
2022-08-08T22:40:19.779Z,19.70
2022-08-08T22:42:47.667Z,19.50
2022-08-08T22:45:19.156Z,19.50
2022-08-08T22:47:48.601Z,19.50
2022-08-08T22:50:26.997Z,19.50
2022-08-08T22:54:32.896Z,19.40
2022-08-08T22:55:59.556Z,19.40
2022-08-08T22:58:34.116Z,19.40
2022-08-08T23:02:01.926Z,19.40
2022-08-08T23:04:00.248Z,19.50
2022-08-08T23:06:28.240Z,19.30
2022-08-08T23:08:58.925Z,19.30
2022-08-08T23:12:27.875Z,19.30
2022-08-08T23:14:21.339Z,19.20
2022-08-08T23:16:54.916Z,19.40
2022-08-08T23:19:32.656Z,19.10
2022-08-08T23:22:08.252Z,19.10
2022-08-08T23:24:43.806Z,19.10
2022-08-08T23:27:39.196Z,19.10
2022-08-08T23:30:09.427Z,18.90
2022-08-08T23:32:41.760Z,19.00
2022-08-08T23:35:18.625Z,19.00
2022-08-08T23:38:03.874Z,18.90
2022-08-08T23:40:58.447Z,19.00
2022-08-08T23:43:45.654Z,18.80
2022-08-08T23:49:03.737Z,18.90
2022-08-08T23:49:15.293Z,18.90
2022-08-08T23:52:06.105Z,18.90
2022-08-08T23:54:53.356Z,18.90
2022-08-08T23:57:53.032Z,18.70
